sensor_id;sensor_type;location;lat;lon;timestamp;P1;durP1;ratioP1;P2;durP2;ratioP2
20629;SDS011;17386;43.846;25.950;2022-07-22T00:01:55;8.70;;;4.32;;
20629;SDS011;17386;43.846;25.950;2022-07-22T00:04:21;6.85;;;4.03;;
20629;SDS011;17386;43.846;25.950;2022-07-22T00:06:47;7.03;;;3.97;;
20629;SDS011;17386;43.846;25.950;2022-07-22T00:09:12;8.40;;;4.35;;
20629;SDS011;17386;43.846;25.950;2022-07-22T00:11:38;6.18;;;3.72;;
20629;SDS011;17386;43.846;25.950;2022-07-22T00:14:03;8.10;;;4.75;;
20629;SDS011;17386;43.846;25.950;2022-07-22T00:16:29;7.97;;;4.50;;
20629;SDS011;17386;43.846;25.950;2022-07-22T00:18:55;8.77;;;4.60;;
20629;SDS011;17386;43.846;25.950;2022-07-22T00:21:20;6.30;;;4.13;;
20629;SDS011;17386;43.846;25.950;2022-07-22T00:23:46;9.27;;;3.80;;
20629;SDS011;17386;43.846;25.950;2022-07-22T00:26:12;7.18;;;3.53;;
20629;SDS011;17386;43.846;25.950;2022-07-22T00:28:38;7.50;;;3.55;;
20629;SDS011;17386;43.846;25.950;2022-07-22T00:31:03;9.60;;;4.05;;
20629;SDS011;17386;43.846;25.950;2022-07-22T00:33:29;12.60;;;4.40;;
20629;SDS011;17386;43.846;25.950;2022-07-22T00:35:54;5.97;;;3.65;;
20629;SDS011;17386;43.846;25.950;2022-07-22T00:38:20;8.45;;;3.90;;
20629;SDS011;17386;43.846;25.950;2022-07-22T00:40:45;7.45;;;4.30;;
20629;SDS011;17386;43.846;25.950;2022-07-22T00:43:11;7.20;;;4.20;;
20629;SDS011;17386;43.846;25.950;2022-07-22T00:45:36;8.07;;;4.35;;
20629;SDS011;17386;43.846;25.950;2022-07-22T00:48:02;10.30;;;3.75;;
20629;SDS011;17386;43.846;25.950;2022-07-22T00:50:28;8.30;;;4.00;;
20629;SDS011;17386;43.846;25.950;2022-07-22T00:52:54;6.10;;;3.70;;
20629;SDS011;17386;43.846;25.950;2022-07-22T00:55:19;10.38;;;3.78;;
20629;SDS011;17386;43.846;25.950;2022-07-22T00:57:45;6.72;;;3.65;;
20629;SDS011;17386;43.846;25.950;2022-07-22T01:00:13;5.80;;;3.90;;
20629;SDS011;17386;43.846;25.950;2022-07-22T01:02:41;7.88;;;4.18;;
20629;SDS011;17386;43.846;25.950;2022-07-22T01:05:07;6.55;;;3.85;;
20629;SDS011;17386;43.846;25.950;2022-07-22T01:07:33;7.18;;;4.40;;
20629;SDS011;17386;43.846;25.950;2022-07-22T01:09:58;7.50;;;3.95;;
20629;SDS011;17386;43.846;25.950;2022-07-22T01:12:24;8.40;;;3.90;;
20629;SDS011;17386;43.846;25.950;2022-07-22T01:14:50;10.43;;;3.90;;
20629;SDS011;17386;43.846;25.950;2022-07-22T01:17:16;5.70;;;3.85;;
20629;SDS011;17386;43.846;25.950;2022-07-22T01:19:42;9.57;;;3.65;;
20629;SDS011;17386;43.846;25.950;2022-07-22T01:22:07;8.10;;;3.75;;
20629;SDS011;17386;43.846;25.950;2022-07-22T01:24:33;8.65;;;4.38;;
20629;SDS011;17386;43.846;25.950;2022-07-22T01:26:59;9.52;;;4.25;;
20629;SDS011;17386;43.846;25.950;2022-07-22T01:29:24;11.10;;;4.28;;
20629;SDS011;17386;43.846;25.950;2022-07-22T01:31:50;7.88;;;3.88;;
20629;SDS011;17386;43.846;25.950;2022-07-22T01:34:15;6.32;;;3.80;;
20629;SDS011;17386;43.846;25.950;2022-07-22T01:36:41;7.25;;;4.07;;
20629;SDS011;17386;43.846;25.950;2022-07-22T01:39:06;7.28;;;3.92;;
20629;SDS011;17386;43.846;25.950;2022-07-22T01:41:32;7.13;;;4.45;;
20629;SDS011;17386;43.846;25.950;2022-07-22T01:43:57;11.13;;;4.50;;
20629;SDS011;17386;43.846;25.950;2022-07-22T01:46:23;9.85;;;4.28;;
20629;SDS011;17386;43.846;25.950;2022-07-22T01:48:49;6.38;;;3.80;;
20629;SDS011;17386;43.846;25.950;2022-07-22T01:53:41;8.52;;;4.13;;
20629;SDS011;17386;43.846;25.950;2022-07-22T01:56:06;10.77;;;4.75;;
20629;SDS011;17386;43.846;25.950;2022-07-22T01:58:32;9.75;;;5.00;;
20629;SDS011;17386;43.846;25.950;2022-07-22T02:00:58;9.45;;;4.63;;
20629;SDS011;17386;43.846;25.950;2022-07-22T02:03:23;10.30;;;5.35;;
20629;SDS011;17386;43.846;25.950;2022-07-22T02:05:49;10.52;;;5.20;;
20629;SDS011;17386;43.846;25.950;2022-07-22T02:08:14;11.20;;;5.43;;
20629;SDS011;17386;43.846;25.950;2022-07-22T02:10:40;17.98;;;5.85;;
20629;SDS011;17386;43.846;25.950;2022-07-22T02:13:06;19.67;;;6.50;;
20629;SDS011;17386;43.846;25.950;2022-07-22T02:15:31;20.67;;;5.65;;
20629;SDS011;17386;43.846;25.950;2022-07-22T02:17:57;13.60;;;5.70;;
20629;SDS011;17386;43.846;25.950;2022-07-22T02:20:23;13.40;;;5.28;;
20629;SDS011;17386;43.846;25.950;2022-07-22T02:22:49;18.95;;;5.05;;
20629;SDS011;17386;43.846;25.950;2022-07-22T02:25:14;15.88;;;5.65;;
20629;SDS011;17386;43.846;25.950;2022-07-22T02:27:40;11.68;;;5.03;;
20629;SDS011;17386;43.846;25.950;2022-07-22T02:30:07;16.23;;;5.53;;
20629;SDS011;17386;43.846;25.950;2022-07-22T02:32:34;15.95;;;5.53;;
20629;SDS011;17386;43.846;25.950;2022-07-22T02:35:00;14.52;;;5.28;;
20629;SDS011;17386;43.846;25.950;2022-07-22T02:37:25;16.15;;;5.72;;
20629;SDS011;17386;43.846;25.950;2022-07-22T02:39:51;13.52;;;5.18;;
20629;SDS011;17386;43.846;25.950;2022-07-22T02:42:17;9.13;;;4.57;;
20629;SDS011;17386;43.846;25.950;2022-07-22T02:44:42;9.82;;;4.95;;
20629;SDS011;17386;43.846;25.950;2022-07-22T02:47:08;10.15;;;4.55;;
20629;SDS011;17386;43.846;25.950;2022-07-22T02:49:34;11.77;;;4.47;;
20629;SDS011;17386;43.846;25.950;2022-07-22T02:51:59;9.80;;;4.63;;
20629;SDS011;17386;43.846;25.950;2022-07-22T02:54:25;8.23;;;4.30;;
20629;SDS011;17386;43.846;25.950;2022-07-22T02:56:50;10.20;;;4.68;;
20629;SDS011;17386;43.846;25.950;2022-07-22T02:59:16;11.13;;;4.97;;
20629;SDS011;17386;43.846;25.950;2022-07-22T03:01:41;6.32;;;4.40;;
20629;SDS011;17386;43.846;25.950;2022-07-22T03:04:07;10.50;;;5.28;;
20629;SDS011;17386;43.846;25.950;2022-07-22T03:06:32;8.05;;;4.15;;
20629;SDS011;17386;43.846;25.950;2022-07-22T03:08:58;11.40;;;5.30;;
20629;SDS011;17386;43.846;25.950;2022-07-22T03:11:23;10.55;;;4.72;;
20629;SDS011;17386;43.846;25.950;2022-07-22T03:13:49;11.63;;;5.05;;
20629;SDS011;17386;43.846;25.950;2022-07-22T03:16:14;12.48;;;5.07;;
20629;SDS011;17386;43.846;25.950;2022-07-22T03:18:40;11.80;;;4.80;;
20629;SDS011;17386;43.846;25.950;2022-07-22T03:21:05;9.45;;;4.70;;
20629;SDS011;17386;43.846;25.950;2022-07-22T03:23:31;7.65;;;4.78;;
20629;SDS011;17386;43.846;25.950;2022-07-22T03:25:56;13.77;;;5.72;;
20629;SDS011;17386;43.846;25.950;2022-07-22T03:28:22;11.52;;;5.18;;
20629;SDS011;17386;43.846;25.950;2022-07-22T03:30:47;8.85;;;4.65;;
20629;SDS011;17386;43.846;25.950;2022-07-22T03:33:13;10.98;;;4.88;;
20629;SDS011;17386;43.846;25.950;2022-07-22T03:35:39;9.40;;;4.68;;
20629;SDS011;17386;43.846;25.950;2022-07-22T03:38:04;8.65;;;4.90;;
20629;SDS011;17386;43.846;25.950;2022-07-22T03:40:30;9.55;;;4.70;;
20629;SDS011;17386;43.846;25.950;2022-07-22T03:42:56;13.38;;;5.13;;
20629;SDS011;17386;43.846;25.950;2022-07-22T03:45:21;10.13;;;4.40;;
20629;SDS011;17386;43.846;25.950;2022-07-22T03:47:47;9.18;;;4.78;;
20629;SDS011;17386;43.846;25.950;2022-07-22T03:50:12;10.90;;;5.10;;
20629;SDS011;17386;43.846;25.950;2022-07-22T03:52:38;11.77;;;5.10;;
20629;SDS011;17386;43.846;25.950;2022-07-22T03:55:04;9.00;;;4.85;;
20629;SDS011;17386;43.846;25.950;2022-07-22T03:57:30;11.98;;;5.30;;
20629;SDS011;17386;43.846;25.950;2022-07-22T03:59:56;11.10;;;5.43;;
20629;SDS011;17386;43.846;25.950;2022-07-22T04:02:21;13.27;;;5.15;;
20629;SDS011;17386;43.846;25.950;2022-07-22T04:04:47;8.55;;;4.43;;
20629;SDS011;17386;43.846;25.950;2022-07-22T04:07:12;12.80;;;4.28;;
20629;SDS011;17386;43.846;25.950;2022-07-22T04:09:38;11.63;;;5.15;;
20629;SDS011;17386;43.846;25.950;2022-07-22T04:12:03;12.68;;;5.93;;
20629;SDS011;17386;43.846;25.950;2022-07-22T04:14:29;9.57;;;5.18;;
20629;SDS011;17386;43.846;25.950;2022-07-22T04:16:55;12.68;;;5.90;;
20629;SDS011;17386;43.846;25.950;2022-07-22T04:19:20;9.73;;;5.47;;
20629;SDS011;17386;43.846;25.950;2022-07-22T04:21:45;11.52;;;5.97;;
20629;SDS011;17386;43.846;25.950;2022-07-22T04:24:11;19.60;;;5.90;;
20629;SDS011;17386;43.846;25.950;2022-07-22T04:26:36;17.13;;;6.70;;
20629;SDS011;17386;43.846;25.950;2022-07-22T04:29:03;101.28;;;12.85;;
20629;SDS011;17386;43.846;25.950;2022-07-22T04:31:29;17.30;;;6.68;;
20629;SDS011;17386;43.846;25.950;2022-07-22T04:33:55;26.30;;;6.45;;
20629;SDS011;17386;43.846;25.950;2022-07-22T04:36:20;14.13;;;5.93;;
20629;SDS011;17386;43.846;25.950;2022-07-22T04:38:45;13.27;;;6.13;;
20629;SDS011;17386;43.846;25.950;2022-07-22T04:41:11;11.30;;;6.03;;
20629;SDS011;17386;43.846;25.950;2022-07-22T04:43:37;12.35;;;6.22;;
20629;SDS011;17386;43.846;25.950;2022-07-22T04:46:02;17.35;;;9.18;;
20629;SDS011;17386;43.846;25.950;2022-07-22T04:48:28;11.52;;;5.15;;
20629;SDS011;17386;43.846;25.950;2022-07-22T04:50:54;12.88;;;5.85;;
20629;SDS011;17386;43.846;25.950;2022-07-22T04:53:24;17.25;;;8.00;;
20629;SDS011;17386;43.846;25.950;2022-07-22T04:55:49;13.80;;;5.43;;
20629;SDS011;17386;43.846;25.950;2022-07-22T04:58:15;13.00;;;5.78;;
20629;SDS011;17386;43.846;25.950;2022-07-22T05:00:40;15.30;;;5.70;;
20629;SDS011;17386;43.846;25.950;2022-07-22T05:03:05;13.25;;;5.97;;
20629;SDS011;17386;43.846;25.950;2022-07-22T05:05:31;15.35;;;5.65;;
20629;SDS011;17386;43.846;25.950;2022-07-22T05:07:56;17.00;;;5.22;;
20629;SDS011;17386;43.846;25.950;2022-07-22T05:10:22;11.60;;;4.97;;
20629;SDS011;17386;43.846;25.950;2022-07-22T05:12:47;17.77;;;5.43;;
20629;SDS011;17386;43.846;25.950;2022-07-22T05:15:13;11.23;;;6.38;;
20629;SDS011;17386;43.846;25.950;2022-07-22T05:17:38;13.05;;;5.68;;
20629;SDS011;17386;43.846;25.950;2022-07-22T05:20:04;16.42;;;5.15;;
20629;SDS011;17386;43.846;25.950;2022-07-22T05:22:30;17.25;;;6.55;;
20629;SDS011;17386;43.846;25.950;2022-07-22T05:24:55;16.35;;;5.40;;
20629;SDS011;17386;43.846;25.950;2022-07-22T05:27:21;9.90;;;4.20;;
20629;SDS011;17386;43.846;25.950;2022-07-22T05:29:46;8.15;;;3.90;;
20629;SDS011;17386;43.846;25.950;2022-07-22T05:32:12;8.75;;;4.22;;
20629;SDS011;17386;43.846;25.950;2022-07-22T05:34:37;10.73;;;4.85;;
20629;SDS011;17386;43.846;25.950;2022-07-22T05:37:03;13.32;;;3.78;;
20629;SDS011;17386;43.846;25.950;2022-07-22T05:39:29;10.73;;;3.47;;
20629;SDS011;17386;43.846;25.950;2022-07-22T05:41:54;7.80;;;3.50;;
20629;SDS011;17386;43.846;25.950;2022-07-22T05:44:20;10.45;;;3.15;;
20629;SDS011;17386;43.846;25.950;2022-07-22T05:46:45;10.95;;;4.45;;
20629;SDS011;17386;43.846;25.950;2022-07-22T05:49:11;7.57;;;2.97;;
20629;SDS011;17386;43.846;25.950;2022-07-22T05:51:36;9.13;;;3.60;;
20629;SDS011;17386;43.846;25.950;2022-07-22T05:54:02;9.88;;;2.63;;
20629;SDS011;17386;43.846;25.950;2022-07-22T05:56:27;9.73;;;3.33;;
20629;SDS011;17386;43.846;25.950;2022-07-22T05:58:53;15.32;;;3.30;;
20629;SDS011;17386;43.846;25.950;2022-07-22T06:01:21;9.57;;;3.35;;
20629;SDS011;17386;43.846;25.950;2022-07-22T06:03:47;11.35;;;3.83;;
20629;SDS011;17386;43.846;25.950;2022-07-22T06:06:13;8.23;;;3.30;;
20629;SDS011;17386;43.846;25.950;2022-07-22T06:08:40;9.00;;;3.17;;
20629;SDS011;17386;43.846;25.950;2022-07-22T06:11:08;8.60;;;3.42;;
20629;SDS011;17386;43.846;25.950;2022-07-22T06:13:34;14.20;;;3.47;;
20629;SDS011;17386;43.846;25.950;2022-07-22T06:15:59;17.15;;;4.28;;
20629;SDS011;17386;43.846;25.950;2022-07-22T06:18:25;11.32;;;3.33;;
20629;SDS011;17386;43.846;25.950;2022-07-22T06:20:51;8.60;;;3.35;;
20629;SDS011;17386;43.846;25.950;2022-07-22T06:23:16;8.98;;;3.35;;
20629;SDS011;17386;43.846;25.950;2022-07-22T06:25:42;11.50;;;3.88;;
20629;SDS011;17386;43.846;25.950;2022-07-22T06:28:08;21.63;;;6.72;;
20629;SDS011;17386;43.846;25.950;2022-07-22T06:30:34;15.13;;;3.78;;
20629;SDS011;17386;43.846;25.950;2022-07-22T06:32:59;13.23;;;3.55;;
20629;SDS011;17386;43.846;25.950;2022-07-22T06:35:25;27.75;;;7.60;;
20629;SDS011;17386;43.846;25.950;2022-07-22T06:37:51;18.98;;;5.50;;
20629;SDS011;17386;43.846;25.950;2022-07-22T06:40:17;12.82;;;3.65;;
20629;SDS011;17386;43.846;25.950;2022-07-22T06:42:42;15.15;;;4.80;;
20629;SDS011;17386;43.846;25.950;2022-07-22T06:45:08;9.95;;;3.20;;
20629;SDS011;17386;43.846;25.950;2022-07-22T06:47:34;11.52;;;3.22;;
20629;SDS011;17386;43.846;25.950;2022-07-22T06:50:04;12.23;;;4.30;;
20629;SDS011;17386;43.846;25.950;2022-07-22T06:52:31;10.30;;;3.00;;
20629;SDS011;17386;43.846;25.950;2022-07-22T06:54:56;9.20;;;2.83;;
20629;SDS011;17386;43.846;25.950;2022-07-22T06:57:22;12.40;;;4.00;;
20629;SDS011;17386;43.846;25.950;2022-07-22T06:59:47;19.35;;;5.70;;
20629;SDS011;17386;43.846;25.950;2022-07-22T07:02:13;23.30;;;6.28;;
20629;SDS011;17386;43.846;25.950;2022-07-22T07:04:39;12.40;;;3.65;;
20629;SDS011;17386;43.846;25.950;2022-07-22T07:07:04;27.00;;;7.50;;
20629;SDS011;17386;43.846;25.950;2022-07-22T07:09:30;16.27;;;4.80;;
20629;SDS011;17386;43.846;25.950;2022-07-22T07:11:55;9.05;;;3.00;;
20629;SDS011;17386;43.846;25.950;2022-07-22T07:14:20;10.65;;;2.67;;
20629;SDS011;17386;43.846;25.950;2022-07-22T07:16:46;19.58;;;6.32;;
20629;SDS011;17386;43.846;25.950;2022-07-22T07:19:12;9.48;;;2.88;;
20629;SDS011;17386;43.846;25.950;2022-07-22T07:21:37;14.18;;;3.60;;
20629;SDS011;17386;43.846;25.950;2022-07-22T07:24:03;13.13;;;3.83;;
20629;SDS011;17386;43.846;25.950;2022-07-22T07:26:29;10.77;;;4.07;;
20629;SDS011;17386;43.846;25.950;2022-07-22T07:28:54;10.85;;;2.55;;
20629;SDS011;17386;43.846;25.950;2022-07-22T07:31:19;14.52;;;4.53;;
20629;SDS011;17386;43.846;25.950;2022-07-22T07:33:45;15.63;;;5.03;;
20629;SDS011;17386;43.846;25.950;2022-07-22T07:36:10;10.13;;;3.22;;
20629;SDS011;17386;43.846;25.950;2022-07-22T07:38:36;8.98;;;3.75;;
20629;SDS011;17386;43.846;25.950;2022-07-22T07:41:02;5.65;;;2.05;;
20629;SDS011;17386;43.846;25.950;2022-07-22T07:43:27;7.97;;;2.80;;
20629;SDS011;17386;43.846;25.950;2022-07-22T07:45:53;13.45;;;3.67;;
20629;SDS011;17386;43.846;25.950;2022-07-22T07:48:18;7.53;;;2.45;;
20629;SDS011;17386;43.846;25.950;2022-07-22T07:50:44;12.35;;;4.10;;
20629;SDS011;17386;43.846;25.950;2022-07-22T07:53:13;8.65;;;2.53;;
20629;SDS011;17386;43.846;25.950;2022-07-22T07:55:39;9.20;;;2.72;;
20629;SDS011;17386;43.846;25.950;2022-07-22T07:58:05;9.10;;;2.85;;
20629;SDS011;17386;43.846;25.950;2022-07-22T08:00:31;9.43;;;3.58;;
20629;SDS011;17386;43.846;25.950;2022-07-22T08:02:59;10.40;;;4.68;;
20629;SDS011;17386;43.846;25.950;2022-07-22T08:05:25;10.13;;;3.40;;
20629;SDS011;17386;43.846;25.950;2022-07-22T08:07:50;13.38;;;4.63;;
20629;SDS011;17386;43.846;25.950;2022-07-22T08:10:16;11.68;;;3.85;;
20629;SDS011;17386;43.846;25.950;2022-07-22T08:12:42;12.80;;;4.88;;
20629;SDS011;17386;43.846;25.950;2022-07-22T08:15:08;11.68;;;3.03;;
20629;SDS011;17386;43.846;25.950;2022-07-22T08:17:35;9.32;;;3.08;;
20629;SDS011;17386;43.846;25.950;2022-07-22T08:20:01;6.55;;;2.60;;
20629;SDS011;17386;43.846;25.950;2022-07-22T08:22:27;10.98;;;4.53;;
20629;SDS011;17386;43.846;25.950;2022-07-22T08:24:53;5.22;;;2.20;;
20629;SDS011;17386;43.846;25.950;2022-07-22T08:27:19;9.93;;;2.88;;
20629;SDS011;17386;43.846;25.950;2022-07-22T08:29:45;5.75;;;2.60;;
20629;SDS011;17386;43.846;25.950;2022-07-22T08:32:10;7.22;;;2.47;;
20629;SDS011;17386;43.846;25.950;2022-07-22T08:34:36;8.45;;;2.70;;
20629;SDS011;17386;43.846;25.950;2022-07-22T08:37:02;6.80;;;2.63;;
20629;SDS011;17386;43.846;25.950;2022-07-22T08:39:27;3.90;;;2.03;;
20629;SDS011;17386;43.846;25.950;2022-07-22T08:41:53;7.38;;;3.45;;
20629;SDS011;17386;43.846;25.950;2022-07-22T08:44:20;12.48;;;4.65;;
20629;SDS011;17386;43.846;25.950;2022-07-22T08:46:46;6.07;;;2.80;;
20629;SDS011;17386;43.846;25.950;2022-07-22T08:49:13;6.75;;;1.80;;
20629;SDS011;17386;43.846;25.950;2022-07-22T08:51:41;5.57;;;1.90;;
20629;SDS011;17386;43.846;25.950;2022-07-22T08:54:07;9.45;;;3.17;;
20629;SDS011;17386;43.846;25.950;2022-07-22T08:56:33;7.88;;;2.40;;
20629;SDS011;17386;43.846;25.950;2022-07-22T08:58:59;5.63;;;1.65;;
20629;SDS011;17386;43.846;25.950;2022-07-22T09:01:24;4.13;;;2.08;;
20629;SDS011;17386;43.846;25.950;2022-07-22T09:03:51;3.33;;;1.70;;
20629;SDS011;17386;43.846;25.950;2022-07-22T09:06:20;4.63;;;1.60;;
20629;SDS011;17386;43.846;25.950;2022-07-22T09:11:22;6.40;;;1.83;;
20629;SDS011;17386;43.846;25.950;2022-07-22T09:13:49;6.35;;;2.40;;
20629;SDS011;17386;43.846;25.950;2022-07-22T09:16:15;4.95;;;1.92;;
20629;SDS011;17386;43.846;25.950;2022-07-22T09:18:51;9.98;;;3.25;;
20629;SDS011;17386;43.846;25.950;2022-07-22T09:21:17;5.85;;;2.00;;
20629;SDS011;17386;43.846;25.950;2022-07-22T09:23:45;4.00;;;1.40;;
20629;SDS011;17386;43.846;25.950;2022-07-22T09:28:56;4.43;;;1.92;;
20629;SDS011;17386;43.846;25.950;2022-07-22T09:31:25;2.92;;;2.00;;
20629;SDS011;17386;43.846;25.950;2022-07-22T09:33:56;3.60;;;2.08;;
20629;SDS011;17386;43.846;25.950;2022-07-22T09:36:22;10.38;;;3.92;;
20629;SDS011;17386;43.846;25.950;2022-07-22T09:38:48;7.60;;;2.13;;
20629;SDS011;17386;43.846;25.950;2022-07-22T09:41:14;10.90;;;3.13;;
20629;SDS011;17386;43.846;25.950;2022-07-22T09:43:40;5.05;;;1.83;;
20629;SDS011;17386;43.846;25.950;2022-07-22T09:46:05;11.63;;;1.80;;
20629;SDS011;17386;43.846;25.950;2022-07-22T09:48:31;6.72;;;1.77;;
20629;SDS011;17386;43.846;25.950;2022-07-22T09:50:57;4.78;;;1.75;;
20629;SDS011;17386;43.846;25.950;2022-07-22T09:53:24;5.13;;;1.63;;
20629;SDS011;17386;43.846;25.950;2022-07-22T09:55:57;4.53;;;2.20;;
20629;SDS011;17386;43.846;25.950;2022-07-22T09:58:25;3.05;;;1.50;;
20629;SDS011;17386;43.846;25.950;2022-07-22T10:00:51;5.38;;;1.73;;
20629;SDS011;17386;43.846;25.950;2022-07-22T10:03:19;5.25;;;2.05;;
20629;SDS011;17386;43.846;25.950;2022-07-22T10:05:50;4.97;;;1.67;;
20629;SDS011;17386;43.846;25.950;2022-07-22T10:08:16;3.63;;;1.88;;
20629;SDS011;17386;43.846;25.950;2022-07-22T10:10:42;4.65;;;1.77;;
20629;SDS011;17386;43.846;25.950;2022-07-22T10:13:09;3.97;;;2.00;;
20629;SDS011;17386;43.846;25.950;2022-07-22T10:15:34;3.60;;;2.00;;
20629;SDS011;17386;43.846;25.950;2022-07-22T10:18:14;8.52;;;1.83;;
20629;SDS011;17386;43.846;25.950;2022-07-22T10:20:41;3.83;;;1.52;;
20629;SDS011;17386;43.846;25.950;2022-07-22T10:23:07;4.78;;;1.80;;
20629;SDS011;17386;43.846;25.950;2022-07-22T10:25:50;4.00;;;1.95;;
20629;SDS011;17386;43.846;25.950;2022-07-22T10:30:48;6.70;;;2.75;;
20629;SDS011;17386;43.846;25.950;2022-07-22T10:33:15;2.63;;;1.70;;
20629;SDS011;17386;43.846;25.950;2022-07-22T10:38:26;6.32;;;2.10;;
20629;SDS011;17386;43.846;25.950;2022-07-22T10:45:58;4.65;;;2.13;;
20629;SDS011;17386;43.846;25.950;2022-07-22T11:01:13;4.68;;;1.70;;
20629;SDS011;17386;43.846;25.950;2022-07-22T11:03:42;4.15;;;1.95;;
20629;SDS011;17386;43.846;25.950;2022-07-22T11:06:28;6.25;;;1.88;;
20629;SDS011;17386;43.846;25.950;2022-07-22T11:08:56;6.22;;;2.22;;
20629;SDS011;17386;43.846;25.950;2022-07-22T11:14:10;4.32;;;1.63;;
20629;SDS011;17386;43.846;25.950;2022-07-22T11:16:42;6.05;;;2.45;;
20629;SDS011;17386;43.846;25.950;2022-07-22T11:19:08;6.30;;;2.20;;
20629;SDS011;17386;43.846;25.950;2022-07-22T11:21:34;4.10;;;2.83;;
20629;SDS011;17386;43.846;25.950;2022-07-22T11:24:01;13.63;;;7.70;;
20629;SDS011;17386;43.846;25.950;2022-07-22T11:26:45;9.48;;;5.88;;
20629;SDS011;17386;43.846;25.950;2022-07-22T11:29:18;6.35;;;2.40;;
20629;SDS011;17386;43.846;25.950;2022-07-22T11:31:44;5.72;;;2.22;;
20629;SDS011;17386;43.846;25.950;2022-07-22T11:34:10;4.68;;;1.63;;
20629;SDS011;17386;43.846;25.950;2022-07-22T11:36:38;4.45;;;1.90;;
20629;SDS011;17386;43.846;25.950;2022-07-22T11:39:06;9.07;;;2.22;;
20629;SDS011;17386;43.846;25.950;2022-07-22T11:41:33;7.32;;;2.53;;
20629;SDS011;17386;43.846;25.950;2022-07-22T11:44:00;4.10;;;1.73;;
20629;SDS011;17386;43.846;25.950;2022-07-22T11:46:26;5.45;;;2.03;;
20629;SDS011;17386;43.846;25.950;2022-07-22T11:48:53;5.05;;;2.03;;
20629;SDS011;17386;43.846;25.950;2022-07-22T11:51:19;9.02;;;2.13;;
20629;SDS011;17386;43.846;25.950;2022-07-22T11:53:45;4.03;;;2.13;;
20629;SDS011;17386;43.846;25.950;2022-07-22T11:56:11;4.95;;;1.92;;
20629;SDS011;17386;43.846;25.950;2022-07-22T11:58:37;2.58;;;1.85;;
20629;SDS011;17386;43.846;25.950;2022-07-22T12:01:13;6.18;;;2.25;;
20629;SDS011;17386;43.846;25.950;2022-07-22T12:03:41;7.22;;;2.30;;
20629;SDS011;17386;43.846;25.950;2022-07-22T12:06:11;5.68;;;1.50;;
20629;SDS011;17386;43.846;25.950;2022-07-22T12:08:45;5.53;;;1.90;;
20629;SDS011;17386;43.846;25.950;2022-07-22T12:11:13;6.28;;;2.35;;
20629;SDS011;17386;43.846;25.950;2022-07-22T12:13:44;5.93;;;2.30;;
20629;SDS011;17386;43.846;25.950;2022-07-22T12:18:58;5.20;;;1.95;;
20629;SDS011;17386;43.846;25.950;2022-07-22T12:21:27;6.57;;;1.67;;
20629;SDS011;17386;43.846;25.950;2022-07-22T12:23:56;6.80;;;2.35;;
20629;SDS011;17386;43.846;25.950;2022-07-22T12:31:55;5.72;;;2.10;;
20629;SDS011;17386;43.846;25.950;2022-07-22T12:37:16;5.15;;;2.22;;
20629;SDS011;17386;43.846;25.950;2022-07-22T12:43:00;4.95;;;2.53;;
20629;SDS011;17386;43.846;25.950;2022-07-22T12:45:28;6.85;;;2.20;;
20629;SDS011;17386;43.846;25.950;2022-07-22T12:53:05;3.88;;;2.58;;
20629;SDS011;17386;43.846;25.950;2022-07-22T12:58:01;4.28;;;2.83;;
20629;SDS011;17386;43.846;25.950;2022-07-22T13:00:29;6.65;;;2.45;;
20629;SDS011;17386;43.846;25.950;2022-07-22T13:02:56;7.43;;;3.50;;
20629;SDS011;17386;43.846;25.950;2022-07-22T13:05:22;5.65;;;3.38;;
20629;SDS011;17386;43.846;25.950;2022-07-22T13:07:48;6.53;;;2.60;;
20629;SDS011;17386;43.846;25.950;2022-07-22T13:10:15;6.30;;;2.47;;
20629;SDS011;17386;43.846;25.950;2022-07-22T13:12:41;5.90;;;3.08;;
20629;SDS011;17386;43.846;25.950;2022-07-22T13:15:07;8.80;;;2.25;;
20629;SDS011;17386;43.846;25.950;2022-07-22T13:17:34;6.75;;;2.30;;
20629;SDS011;17386;43.846;25.950;2022-07-22T13:20:00;7.55;;;2.40;;
20629;SDS011;17386;43.846;25.950;2022-07-22T13:22:26;3.90;;;2.28;;
20629;SDS011;17386;43.846;25.950;2022-07-22T13:24:51;4.97;;;2.05;;
20629;SDS011;17386;43.846;25.950;2022-07-22T13:27:17;6.38;;;2.22;;
20629;SDS011;17386;43.846;25.950;2022-07-22T13:29:43;10.10;;;2.85;;
20629;SDS011;17386;43.846;25.950;2022-07-22T13:32:08;12.30;;;2.95;;
20629;SDS011;17386;43.846;25.950;2022-07-22T13:34:34;10.15;;;3.15;;
20629;SDS011;17386;43.846;25.950;2022-07-22T13:36:59;19.27;;;13.35;;
20629;SDS011;17386;43.846;25.950;2022-07-22T13:39:25;7.03;;;3.00;;
20629;SDS011;17386;43.846;25.950;2022-07-22T13:41:51;10.23;;;4.68;;
20629;SDS011;17386;43.846;25.950;2022-07-22T13:44:16;9.35;;;2.47;;
20629;SDS011;17386;43.846;25.950;2022-07-22T13:46:42;7.25;;;3.13;;
20629;SDS011;17386;43.846;25.950;2022-07-22T13:49:07;8.43;;;3.10;;
20629;SDS011;17386;43.846;25.950;2022-07-22T13:51:33;6.45;;;3.00;;
20629;SDS011;17386;43.846;25.950;2022-07-22T13:53:58;4.97;;;2.22;;
20629;SDS011;17386;43.846;25.950;2022-07-22T13:56:24;5.85;;;2.30;;
20629;SDS011;17386;43.846;25.950;2022-07-22T13:58:50;9.25;;;2.65;;
20629;SDS011;17386;43.846;25.950;2022-07-22T14:01:15;6.15;;;2.53;;
20629;SDS011;17386;43.846;25.950;2022-07-22T14:03:41;6.10;;;2.70;;
20629;SDS011;17386;43.846;25.950;2022-07-22T14:06:06;6.03;;;3.20;;
20629;SDS011;17386;43.846;25.950;2022-07-22T14:08:34;5.88;;;2.90;;
20629;SDS011;17386;43.846;25.950;2022-07-22T14:11:00;5.50;;;3.10;;
20629;SDS011;17386;43.846;25.950;2022-07-22T14:13:25;9.68;;;2.53;;
20629;SDS011;17386;43.846;25.950;2022-07-22T14:15:51;4.68;;;2.22;;
20629;SDS011;17386;43.846;25.950;2022-07-22T14:18:16;7.05;;;2.70;;
20629;SDS011;17386;43.846;25.950;2022-07-22T14:20:41;4.93;;;2.30;;
20629;SDS011;17386;43.846;25.950;2022-07-22T14:23:07;5.60;;;2.20;;
20629;SDS011;17386;43.846;25.950;2022-07-22T14:25:36;5.60;;;3.80;;
20629;SDS011;17386;43.846;25.950;2022-07-22T14:28:03;7.32;;;4.10;;
20629;SDS011;17386;43.846;25.950;2022-07-22T14:30:29;5.80;;;2.28;;
20629;SDS011;17386;43.846;25.950;2022-07-22T14:32:55;7.13;;;3.28;;
20629;SDS011;17386;43.846;25.950;2022-07-22T14:35:21;7.57;;;2.88;;
20629;SDS011;17386;43.846;25.950;2022-07-22T14:37:46;6.20;;;2.92;;
20629;SDS011;17386;43.846;25.950;2022-07-22T14:40:12;6.68;;;2.50;;
20629;SDS011;17386;43.846;25.950;2022-07-22T14:42:37;10.73;;;4.70;;
20629;SDS011;17386;43.846;25.950;2022-07-22T14:45:03;3.97;;;2.25;;
20629;SDS011;17386;43.846;25.950;2022-07-22T14:47:29;7.53;;;2.50;;
20629;SDS011;17386;43.846;25.950;2022-07-22T14:49:55;5.07;;;2.78;;
20629;SDS011;17386;43.846;25.950;2022-07-22T14:52:20;9.65;;;4.60;;
20629;SDS011;17386;43.846;25.950;2022-07-22T14:54:46;10.80;;;4.28;;
20629;SDS011;17386;43.846;25.950;2022-07-22T14:57:11;7.38;;;3.83;;
20629;SDS011;17386;43.846;25.950;2022-07-22T14:59:37;7.60;;;3.03;;
20629;SDS011;17386;43.846;25.950;2022-07-22T15:02:02;7.28;;;2.88;;
20629;SDS011;17386;43.846;25.950;2022-07-22T15:04:28;10.20;;;3.17;;
20629;SDS011;17386;43.846;25.950;2022-07-22T15:06:53;8.93;;;3.22;;
20629;SDS011;17386;43.846;25.950;2022-07-22T15:09:19;7.32;;;2.85;;
20629;SDS011;17386;43.846;25.950;2022-07-22T15:11:44;7.43;;;2.28;;
20629;SDS011;17386;43.846;25.950;2022-07-22T15:14:09;7.57;;;3.20;;
20629;SDS011;17386;43.846;25.950;2022-07-22T15:16:35;7.57;;;2.90;;
20629;SDS011;17386;43.846;25.950;2022-07-22T15:19:00;9.88;;;3.53;;